Time;durP1;ratioP1;P1;durP2;ratioP2;P2;SDS_P1;SDS_P2;PMS_P1;PMS_P2;Temp;Humidity;BMP_temperature;BMP_pressure;BME280_temperature;BME280_humidity;BME280_pressure;Samples;Min_cycle;Max_cycle;Signal;HPM_P1;HPM_P2
2022/09/01 00:01:43;;;;;;;0.95;0.50;;;15.80;99.90;;;;;;4997064;28;20053;-75
2022/09/01 00:04:12;;;;;;;2.35;0.50;;;16.00;99.90;;;;;;4996966;28;20129;-75
2022/09/01 00:06:39;;;;;;;1.48;0.50;;;16.00;99.90;;;;;;4996880;28;20054;-75
2022/09/01 00:09:08;;;;;;;2.40;0.50;;;15.80;99.90;;;;;;4996829;28;20046;-75
2022/09/01 00:11:34;;;;;;;1.08;0.50;;;15.80;99.90;;;;;;4979695;28;20050;-75
2022/09/01 00:14:01;;;;;;;1.27;0.50;;;15.80;99.90;;;;;;4996805;28;20570;-75
2022/09/01 00:16:28;;;;;;;1.23;0.40;;;16.10;99.90;;;;;;4996702;28;20478;-75
2022/09/01 00:18:54;;;;;;;1.20;0.40;;;15.70;99.90;;;;;;4997260;28;20121;-75
2022/09/01 00:21:27;;;;;;;1.77;0.50;;;15.80;99.90;;;;;;4996505;28;20049;-75
2022/09/01 00:23:53;;;;;;;0.52;0.40;;;15.80;99.90;;;;;;4996393;28;20058;-74
2022/09/01 00:26:19;;;;;;;1.33;0.50;;;15.80;99.90;;;;;;4995279;28;20046;-76
2022/09/01 00:28:45;;;;;;;0.60;0.43;;;15.70;99.90;;;;;;4997080;28;20051;-74
2022/09/01 00:31:13;;;;;;;1.27;0.40;;;15.80;99.90;;;;;;4995889;28;20061;-75
2022/09/01 00:33:39;;;;;;;0.57;0.30;;;15.70;99.90;;;;;;4996446;28;20104;-75
2022/09/01 00:36:06;;;;;;;1.67;0.40;;;15.80;99.90;;;;;;4996396;28;20050;-75
2022/09/01 00:38:32;;;;;;;0.75;0.40;;;15.70;99.90;;;;;;4996805;28;20057;-75
2022/09/01 00:40:59;;;;;;;0.73;0.50;;;15.70;99.90;;;;;;4995468;28;20063;-75
2022/09/01 00:43:45;;;;;;;1.20;0.50;;;15.60;99.90;;;;;;4996194;28;20050;-75
2022/09/01 00:46:15;;;;;;;1.90;0.40;;;15.70;99.90;;;;;;4996492;28;20042;-75
2022/09/01 00:48:41;;;;;;;1.27;0.50;;;15.70;99.90;;;;;;4997071;28;20449;-75
2022/09/01 00:51:09;;;;;;;0.40;0.40;;;15.70;99.90;;;;;;4996561;28;20052;-76
2022/09/01 00:53:38;;;;;;;0.50;0.40;;;15.80;99.90;;;;;;4997006;28;20058;-76
2022/09/01 00:56:06;;;;;;;1.58;0.50;;;15.50;99.90;;;;;;4996958;28;20061;-75
2022/09/01 00:58:34;;;;;;;1.67;0.50;;;15.50;99.90;;;;;;4996090;28;20113;-76
2022/09/01 01:01:01;;;;;;;1.10;0.45;;;15.50;99.90;;;;;;4996720;28;20054;-75
2022/09/01 01:03:29;;;;;;;0.60;0.40;;;15.30;99.90;;;;;;4996529;28;20058;-75
2022/09/01 01:05:57;;;;;;;0.70;0.40;;;15.20;99.90;;;;;;4994949;28;20054;-76
2022/09/01 01:08:32;;;;;;;0.65;0.50;;;15.40;99.90;;;;;;4996642;28;20050;-75
2022/09/01 01:11:03;;;;;;;0.80;0.50;;;15.30;99.90;;;;;;4994565;28;20054;-75
2022/09/01 01:13:35;;;;;;;1.17;0.50;;;15.30;99.90;;;;;;4995789;28;20055;-76
2022/09/01 01:16:02;;;;;;;1.88;0.50;;;15.30;99.90;;;;;;4995770;28;20050;-75
2022/09/01 01:18:28;;;;;;;0.60;0.50;;;15.30;99.90;;;;;;4995551;28;20062;-75
2022/09/01 01:24:08;;;;;;;0.98;0.50;;;15.30;99.90;;;;;;4995512;28;20054;-75
2022/09/01 01:26:34;;;;;;;1.05;0.40;;;15.30;99.90;;;;;;4995454;28;20086;-75
2022/09/01 01:29:01;;;;;;;0.82;0.40;;;15.20;99.90;;;;;;4978276;28;20181;-75
2022/09/01 01:31:27;;;;;;;0.50;0.50;;;15.30;99.90;;;;;;4993975;28;20116;-75
2022/09/01 01:33:55;;;;;;;0.80;0.45;;;15.20;99.90;;;;;;4978935;28;20462;-74
2022/09/01 01:36:31;;;;;;;1.88;0.60;;;15.10;99.90;;;;;;4994248;28;20138;-75
2022/09/01 01:39:00;;;;;;;0.60;0.57;;;15.20;99.90;;;;;;4994555;28;20137;-75
2022/09/01 01:41:28;;;;;;;1.23;0.60;;;15.20;99.90;;;;;;4995148;28;20046;-75
2022/09/01 01:43:57;;;;;;;0.95;0.57;;;15.10;99.90;;;;;;4978004;28;20058;-75
2022/09/01 01:46:24;;;;;;;0.60;0.60;;;15.10;99.90;;;;;;4994082;28;20096;-73
2022/09/01 01:48:51;;;;;;;1.63;0.50;;;15.20;99.90;;;;;;4995057;28;20133;-74
2022/09/01 01:51:25;;;;;;;1.95;0.50;;;15.10;99.90;;;;;;4995018;28;20395;-75
2022/09/01 01:53:51;;;;;;;1.10;0.50;;;15.10;99.90;;;;;;4994992;28;20064;-75
2022/09/01 01:56:18;;;;;;;0.88;0.40;;;15.10;99.90;;;;;;4994533;28;20129;-74
2022/09/01 01:58:44;;;;;;;2.45;0.43;;;15.10;99.90;;;;;;4994844;28;20042;-75
2022/09/01 02:01:11;;;;;;;0.65;0.50;;;15.10;99.90;;;;;;4977563;28;20454;-75
2022/09/01 02:03:38;;;;;;;0.40;0.40;;;15.20;99.90;;;;;;4994800;28;20101;-74
2022/09/01 02:06:07;;;;;;;0.70;0.50;;;15.10;99.90;;;;;;4994796;28;20126;-75
2022/09/01 02:08:34;;;;;;;0.50;0.50;;;15.10;99.90;;;;;;4993263;28;20065;-75
2022/09/01 02:11:01;;;;;;;2.13;0.60;;;15.10;99.90;;;;;;4995426;28;20042;-75
2022/09/01 02:13:30;;;;;;;1.95;0.55;;;15.10;99.90;;;;;;4994628;28;20054;-75
2022/09/01 02:16:00;;;;;;;1.13;0.52;;;15.30;99.90;;;;;;4993353;28;20061;-74
2022/09/01 02:18:33;;;;;;;1.50;0.60;;;15.10;99.90;;;;;;4994664;28;20112;-75
2022/09/01 02:20:59;;;;;;;2.15;0.60;;;15.20;99.90;;;;;;4995050;28;20050;-74
2022/09/01 02:23:25;;;;;;;0.60;0.40;;;15.20;99.90;;;;;;4994487;28;20054;-75
2022/09/01 02:25:55;;;;;;;1.25;0.50;;;15.20;99.90;;;;;;4993277;28;20054;-74
2022/09/01 02:28:22;;;;;;;0.40;0.40;;;15.30;99.90;;;;;;4994486;28;20097;-74
2022/09/01 02:30:52;;;;;;;2.97;0.50;;;15.10;99.90;;;;;;4994432;28;20085;-74
2022/09/01 02:33:19;;;;;;;0.73;0.50;;;15.10;99.90;;;;;;4994378;28;20559;-74
2022/09/01 02:35:51;;;;;;;1.52;0.55;;;15.10;99.90;;;;;;4994908;28;20046;-74
2022/09/01 02:38:19;;;;;;;0.73;0.60;;;14.90;99.90;;;;;;4994379;28;20052;-75
2022/09/01 02:40:46;;;;;;;1.05;0.40;;;15.00;99.90;;;;;;4994254;28;20050;-75
2022/09/01 02:43:19;;;;;;;0.70;0.50;;;15.10;99.90;;;;;;4993264;28;20046;-75
2022/09/01 02:45:58;;;;;;;0.80;0.55;;;15.00;99.90;;;;;;4994582;28;20050;-75
2022/09/01 02:48:36;;;;;;;0.80;0.50;;;15.10;99.90;;;;;;4993920;28;20046;-74
2022/09/01 02:51:24;;;;;;;0.70;0.50;;;15.00;99.90;;;;;;4993506;28;20061;-74
2022/09/01 02:53:51;;;;;;;0.80;0.60;;;15.10;99.90;;;;;;4977058;28;20081;-75
2022/09/01 02:56:21;;;;;;;0.77;0.55;;;15.00;99.90;;;;;;4994078;28;20059;-74
2022/09/01 02:58:48;;;;;;;1.52;1.27;;;15.00;99.90;;;;;;4994688;28;20061;-75
2022/09/01 03:01:30;;;;;;;1.15;0.50;;;15.00;99.90;;;;;;4994400;28;20133;-75
2022/09/01 03:03:59;;;;;;;0.73;0.60;;;15.10;99.90;;;;;;4994157;28;20050;-75
2022/09/01 03:06:25;;;;;;;1.05;0.60;;;14.90;99.90;;;;;;4994855;28;20120;-74
2022/09/01 03:08:54;;;;;;;2.28;0.60;;;14.90;99.90;;;;;;4994034;28;20494;-75
2022/09/01 03:11:20;;;;;;;1.17;0.50;;;14.90;99.90;;;;;;4994041;28;20042;-74
2022/09/01 03:13:46;;;;;;;0.93;0.60;;;15.00;99.90;;;;;;4993982;28;20379;-75
2022/09/01 03:16:12;;;;;;;0.75;0.63;;;15.00;99.90;;;;;;4994511;28;20053;-75
2022/09/01 03:18:38;;;;;;;1.80;0.50;;;14.90;99.90;;;;;;4993963;28;20059;-75
2022/09/01 03:21:05;;;;;;;0.88;0.65;;;15.00;99.90;;;;;;4994461;28;20439;-75
2022/09/01 03:23:32;;;;;;;0.95;0.68;;;15.00;99.90;;;;;;4997771;28;20073;-75
2022/09/01 03:25:58;;;;;;;1.38;0.57;;;15.00;99.90;;;;;;4997662;28;20050;-75
2022/09/01 03:28:24;;;;;;;1.00;0.60;;;14.90;99.90;;;;;;4997487;28;20181;-75
2022/09/01 03:30:52;;;;;;;2.13;0.70;;;14.90;99.90;;;;;;4997622;28;20121;-75
2022/09/01 03:33:20;;;;;;;0.70;0.60;;;15.00;99.90;;;;;;4997609;28;20058;-75
2022/09/01 03:35:46;;;;;;;2.50;0.70;;;14.90;99.90;;;;;;4996340;28;20486;-75
2022/09/01 03:38:20;;;;;;;0.60;0.60;;;15.00;99.90;;;;;;4996553;28;20054;-74
2022/09/01 03:40:51;;;;;;;0.75;0.60;;;15.00;99.90;;;;;;4998040;28;20050;-75
2022/09/01 03:43:22;;;;;;;1.17;0.60;;;14.90;99.90;;;;;;4997945;28;20057;-74
2022/09/01 03:45:48;;;;;;;0.95;0.73;;;15.00;99.90;;;;;;4997474;28;20094;-74
2022/09/01 03:48:15;;;;;;;1.17;0.65;;;14.90;99.90;;;;;;4996422;28;20082;-74
2022/09/01 03:50:45;;;;;;;1.48;0.60;;;15.00;99.90;;;;;;4996095;28;20482;-74
2022/09/01 03:53:21;;;;;;;1.23;0.60;;;15.00;99.90;;;;;;4997486;28;20053;-74
2022/09/01 03:55:48;;;;;;;1.75;0.68;;;14.90;99.90;;;;;;4997551;28;20129;-74
2022/09/01 03:58:19;;;;;;;0.90;0.70;;;15.00;99.90;;;;;;4997760;28;20050;-75
2022/09/01 04:00:49;;;;;;;2.28;0.73;;;15.00;99.90;;;;;;4979896;28;20553;-74
2022/09/01 04:03:20;;;;;;;0.77;0.70;;;14.90;99.90;;;;;;4996614;28;20050;-75
2022/09/01 04:05:47;;;;;;;2.38;0.70;;;15.00;99.90;;;;;;4995797;28;20112;-75
2022/09/01 04:08:13;;;;;;;1.77;0.60;;;15.00;99.90;;;;;;4996235;28;20042;-75
2022/09/01 04:10:46;;;;;;;1.10;0.70;;;15.00;99.90;;;;;;4997398;28;20092;-75
2022/09/01 04:13:12;;;;;;;0.95;0.77;;;15.00;99.90;;;;;;4997153;28;20129;-75
2022/09/01 04:15:38;;;;;;;2.00;0.68;;;14.90;99.90;;;;;;4997331;28;20101;-75
2022/09/01 04:18:18;;;;;;;1.02;1.00;;;15.00;99.90;;;;;;4996020;28;20054;-75
2022/09/01 04:20:49;;;;;;;0.65;0.65;;;15.00;99.90;;;;;;4997581;28;20423;-75
2022/09/01 04:23:32;;;;;;;1.98;0.90;;;15.10;99.90;;;;;;4996627;28;20042;-75
2022/09/01 04:26:07;;;;;;;2.45;0.70;;;14.90;99.90;;;;;;4996838;28;20587;-75
2022/09/01 04:28:44;;;;;;;1.65;0.80;;;14.90;99.90;;;;;;4997356;28;20081;-75
2022/09/01 04:31:13;;;;;;;2.22;0.80;;;14.90;99.90;;;;;;4996563;28;20042;-74
2022/09/01 04:33:39;;;;;;;1.42;0.70;;;15.10;99.90;;;;;;4994644;28;20049;-75
2022/09/01 04:36:18;;;;;;;1.63;0.80;;;14.90;99.90;;;;;;4995299;28;20042;-74
2022/09/01 04:38:44;;;;;;;1.95;0.80;;;15.00;99.90;;;;;;4996918;28;20348;-75
2022/09/01 04:41:16;;;;;;;1.33;0.90;;;14.80;99.90;;;;;;4995092;28;20367;-74
2022/09/01 04:43:46;;;;;;;1.38;0.82;;;14.80;99.90;;;;;;4996618;28;20054;-75
2022/09/01 04:46:15;;;;;;;1.08;0.60;;;14.80;99.90;;;;;;4995884;28;20087;-75
2022/09/01 04:48:43;;;;;;;0.85;0.60;;;14.80;99.90;;;;;;4996763;28;20050;-75
2022/09/01 04:51:11;;;;;;;1.65;0.90;;;14.80;99.90;;;;;;4996212;28;20061;-75
2022/09/01 04:53:39;;;;;;;1.42;0.82;;;14.90;99.90;;;;;;4995925;28;20128;-74
2022/09/01 04:56:08;;;;;;;1.25;0.80;;;14.90;99.90;;;;;;4996051;28;20062;-74
2022/09/01 04:58:35;;;;;;;0.98;0.73;;;14.70;99.90;;;;;;4996002;28;20069;-74
2022/09/01 05:01:05;;;;;;;2.08;0.70;;;14.80;99.90;;;;;;4994788;28;20095;-75
2022/09/01 05:03:30;;;;;;;0.90;0.80;;;15.00;99.90;;;;;;4995857;28;20054;-75
2022/09/01 05:06:02;;;;;;;1.52;0.73;;;14.80;99.90;;;;;;4996176;28;20505;-74
2022/09/01 05:08:29;;;;;;;2.50;0.88;;;14.90;99.90;;;;;;4994655;28;20058;-74
2022/09/01 05:10:55;;;;;;;2.85;0.90;;;14.80;99.90;;;;;;4995774;28;20050;-74
2022/09/01 05:13:26;;;;;;;1.15;0.90;;;14.80;99.90;;;;;;4995054;28;20501;-75
2022/09/01 05:16:05;;;;;;;2.00;1.00;;;14.80;99.90;;;;;;4994802;28;20537;-74
2022/09/01 05:18:31;;;;;;;2.08;1.00;;;14.70;99.90;;;;;;4996512;28;20133;-74
2022/09/01 05:20:56;;;;;;;1.10;0.80;;;14.70;99.90;;;;;;4978732;28;20038;-75
2022/09/01 05:23:24;;;;;;;2.30;1.00;;;14.80;99.90;;;;;;4995953;28;20104;-74
2022/09/01 05:25:53;;;;;;;1.83;0.88;;;14.70;99.90;;;;;;4994344;28;20042;-74
2022/09/01 05:28:23;;;;;;;1.38;0.70;;;14.70;99.90;;;;;;4994519;28;20047;-74
2022/09/01 05:30:52;;;;;;;1.15;0.80;;;14.70;99.90;;;;;;4995802;28;20042;-74
2022/09/01 05:33:20;;;;;;;1.63;0.80;;;15.00;99.90;;;;;;4995399;28;20042;-74
2022/09/01 05:35:59;;;;;;;1.15;0.80;;;14.90;99.90;;;;;;4995617;28;20050;-74
2022/09/01 05:38:25;;;;;;;1.48;0.90;;;14.70;99.90;;;;;;4995858;28;20054;-75
2022/09/01 05:41:02;;;;;;;4.13;0.90;;;14.90;99.90;;;;;;4994233;28;20108;-75
2022/09/01 05:43:29;;;;;;;1.75;0.95;;;14.90;99.90;;;;;;4995052;28;20505;-74
2022/09/01 05:45:57;;;;;;;2.33;0.98;;;14.90;99.90;;;;;;4993958;28;20057;-74
2022/09/01 05:48:23;;;;;;;1.73;0.80;;;14.80;99.90;;;;;;4994997;28;20054;-74
2022/09/01 05:50:55;;;;;;;1.15;0.88;;;14.80;99.90;;;;;;4993607;28;20569;-74
2022/09/01 05:53:24;;;;;;;0.80;0.80;;;15.00;99.90;;;;;;4995621;28;20047;-74
2022/09/01 05:55:55;;;;;;;2.85;0.80;;;15.00;99.90;;;;;;4994907;28;20394;-74
2022/09/01 05:58:24;;;;;;;1.42;0.80;;;14.90;99.90;;;;;;4995231;28;20514;-74
2022/09/01 06:00:53;;;;;;;0.98;0.82;;;14.90;99.90;;;;;;4994232;28;20046;-74
2022/09/01 06:03:21;;;;;;;2.40;0.90;;;15.10;99.90;;;;;;4995543;28;20121;-74
2022/09/01 06:05:51;;;;;;;0.95;0.80;;;15.00;99.90;;;;;;4995286;28;20050;-74
2022/09/01 06:08:19;;;;;;;1.60;1.00;;;15.10;99.90;;;;;;4994803;28;20046;-74
2022/09/01 06:10:45;;;;;;;3.15;1.00;;;15.10;99.90;;;;;;4993708;28;20051;-74
2022/09/01 06:13:14;;;;;;;0.98;0.90;;;15.20;99.90;;;;;;4994936;28;20039;-74
2022/09/01 06:15:41;;;;;;;1.33;0.80;;;15.20;99.90;;;;;;4994601;28;20050;-75
2022/09/01 06:18:11;;;;;;;1.50;1.10;;;15.20;99.90;;;;;;4993869;28;20120;-74
2022/09/01 06:20:42;;;;;;;1.20;0.95;;;15.20;99.90;;;;;;4994330;28;20382;-74
2022/09/01 06:23:10;;;;;;;1.02;0.90;;;15.30;99.90;;;;;;4994417;28;20050;-73
2022/09/01 06:25:38;;;;;;;1.55;0.80;;;15.30;99.90;;;;;;4994460;28;20116;-73
2022/09/01 06:28:06;;;;;;;2.22;0.90;;;15.50;99.90;;;;;;4993569;28;20050;-74
2022/09/01 06:30:35;;;;;;;3.08;1.00;;;15.50;99.90;;;;;;4993481;28;20134;-74
2022/09/01 06:33:04;;;;;;;1.45;1.00;;;15.50;99.90;;;;;;4994456;28;20038;-74
2022/09/01 06:35:31;;;;;;;2.17;0.93;;;15.60;99.90;;;;;;4994373;28;20046;-74
2022/09/01 06:37:57;;;;;;;1.80;0.90;;;15.50;99.90;;;;;;4994889;28;20049;-74
2022/09/01 06:40:24;;;;;;;2.13;0.95;;;15.70;99.90;;;;;;4994296;28;20108;-74
2022/09/01 06:42:51;;;;;;;2.00;0.80;;;15.60;99.90;;;;;;4994247;28;20042;-74
2022/09/01 06:45:19;;;;;;;1.17;1.00;;;15.80;99.90;;;;;;4993927;28;20482;-74
2022/09/01 06:47:46;;;;;;;1.23;0.90;;;15.70;99.90;;;;;;4994455;28;20100;-74
2022/09/01 06:50:14;;;;;;;0.95;0.80;;;15.70;99.90;;;;;;4993852;28;20046;-74
2022/09/01 06:52:44;;;;;;;2.60;0.95;;;15.80;99.90;;;;;;4994150;28;20046;-74
2022/09/01 06:55:11;;;;;;;0.90;0.77;;;15.90;99.90;;;;;;4994173;28;20133;-73
2022/09/01 06:57:44;;;;;;;1.00;0.90;;;15.90;99.90;;;;;;4964475;28;20062;-74
2022/09/01 07:00:19;;;;;;;1.80;0.70;;;15.90;99.90;;;;;;4982139;28;20051;-73
2022/09/01 07:02:54;;;;;;;2.88;0.90;;;15.90;99.90;;;;;;4997264;28;20054;-74
2022/09/01 07:05:20;;;;;;;1.27;0.80;;;15.90;99.90;;;;;;4998150;28;20163;-74
2022/09/01 07:07:51;;;;;;;0.93;0.70;;;16.00;99.90;;;;;;4998001;28;20056;-74
2022/09/01 07:10:21;;;;;;;1.20;0.73;;;16.30;99.90;;;;;;4998052;28;20169;-74
2022/09/01 07:12:51;;;;;;;2.47;0.85;;;16.10;99.90;;;;;;4998578;28;20047;-74
2022/09/01 07:15:19;;;;;;;1.10;0.80;;;16.10;99.90;;;;;;4996770;28;20056;-74
2022/09/01 07:17:57;;;;;;;1.63;0.70;;;16.10;99.90;;;;;;4997878;28;20050;-74
2022/09/01 07:20:26;;;;;;;2.05;0.70;;;16.20;99.90;;;;;;4996646;28;20072;-74
2022/09/01 07:22:54;;;;;;;1.13;0.85;;;16.20;99.90;;;;;;4998512;28;20462;-75
2022/09/01 07:25:19;;;;;;;0.90;0.77;;;16.20;99.90;;;;;;4997436;28;20049;-73
2022/09/01 07:27:49;;;;;;;1.45;0.60;;;16.30;99.90;;;;;;4980779;28;20042;-73
2022/09/01 07:30:19;;;;;;;1.73;0.80;;;16.30;99.90;;;;;;4996156;28;20553;-73
2022/09/01 07:32:45;;;;;;;1.67;0.88;;;16.30;99.90;;;;;;4997572;28;20374;-74
2022/09/01 07:35:18;;;;;;;2.05;0.80;;;16.50;99.90;;;;;;4996714;28;20133;-74
2022/09/01 07:37:47;;;;;;;1.92;0.80;;;16.50;99.90;;;;;;5000559;28;20046;-74
2022/09/01 07:40:17;;;;;;;2.85;0.80;;;16.50;99.90;;;;;;4999699;28;20046;-74
2022/09/01 07:42:46;;;;;;;1.90;0.77;;;16.60;99.90;;;;;;4997689;28;20536;-75
2022/09/01 07:45:14;;;;;;;1.33;0.90;;;16.60;99.90;;;;;;4997460;28;20054;-75
2022/09/01 07:47:41;;;;;;;2.08;0.80;;;16.70;99.90;;;;;;4997487;28;20042;-76
2022/09/01 07:50:09;;;;;;;1.98;0.80;;;16.70;99.90;;;;;;4997272;28;20532;-76
2022/09/01 07:52:41;;;;;;;2.60;0.90;;;16.80;99.90;;;;;;4997315;28;20125;-75
2022/09/01 07:55:14;;;;;;;1.40;0.90;;;16.80;99.90;;;;;;4997311;28;20053;-75
2022/09/01 07:57:41;;;;;;;;;;;17.00;99.90;;;;;;4997201;28;20081;-75
2022/09/01 08:00:10;;;;;;;1.83;0.85;;;16.90;99.90;;;;;;4997219;28;19988;-75
2022/09/01 08:02:37;;;;;;;1.38;0.85;;;17.00;99.90;;;;;;4997123;28;20057;-76
2022/09/01 08:05:08;;;;;;;2.58;0.80;;;17.10;99.90;;;;;;4997214;28;20050;-74
2022/09/01 08:07:35;;;;;;;4.28;0.80;;;17.20;99.90;;;;;;4997102;28;20074;-74
2022/09/01 08:10:06;;;;;;;1.85;0.70;;;17.20;99.90;;;;;;4996850;28;20057;-74
2022/09/01 08:12:33;;;;;;;0.93;0.70;;;17.20;99.90;;;;;;4996966;28;20039;-73
2022/09/01 08:15:01;;;;;;;1.85;0.80;;;17.20;99.90;;;;;;4996945;28;20093;-77
2022/09/01 08:17:27;;;;;;;7.57;1.23;;;17.40;99.90;;;;;;4996638;28;20058;-73
2022/09/01 08:19:53;;;;;;;1.00;0.70;;;17.40;99.90;;;;;;4979746;28;20552;-73
2022/09/01 08:22:22;;;;;;;2.35;0.70;;;17.40;99.90;;;;;;4996473;28;20089;-72
2022/09/01 08:24:49;;;;;;;2.03;0.70;;;17.50;99.90;;;;;;4996675;28;20046;-73
2022/09/01 08:27:15;;;;;;;1.90;0.77;;;17.60;99.90;;;;;;4995154;28;20044;-73
2022/09/01 08:29:41;;;;;;;2.30;0.80;;;17.60;99.90;;;;;;4995534;28;20042;-74
2022/09/01 08:32:06;;;;;;;2.70;0.80;;;17.80;99.90;;;;;;4996698;28;20042;-74
2022/09/01 08:34:33;;;;;;;2.00;0.82;;;17.80;99.90;;;;;;4995446;28;20046;-73
2022/09/01 08:36:59;;;;;;;1.77;0.90;;;17.90;99.90;;;;;;4996560;28;20042;-74
2022/09/01 08:39:25;;;;;;;1.98;0.70;;;17.90;99.90;;;;;;4979165;28;20046;-74
2022/09/01 08:42:10;;;;;;;1.27;0.70;;;17.90;99.90;;;;;;4995752;28;20053;-73
2022/09/01 08:45:05;;;;;;;1.10;0.80;;;18.00;99.90;;;;;;4979542;28;20050;-73
2022/09/01 08:47:31;;;;;;;0.70;0.70;;;18.20;99.90;;;;;;4996795;28;20086;-73
2022/09/01 08:49:58;;;;;;;1.70;0.70;;;18.20;99.90;;;;;;4995055;28;20133;-72
2022/09/01 08:52:32;;;;;;;1.42;0.65;;;18.00;99.90;;;;;;4995929;28;20054;-73
2022/09/01 08:55:09;;;;;;;2.13;0.60;;;18.10;99.90;;;;;;4996162;28;20085;-72
2022/09/01 08:57:38;;;;;;;1.15;0.80;;;18.30;99.90;;;;;;4994061;28;20101;-72
2022/09/01 09:00:11;;;;;;;1.52;0.70;;;18.30;99.90;;;;;;4995431;28;20042;-74
2022/09/01 09:02:46;;;;;;;1.67;0.60;;;18.30;99.90;;;;;;4993766;28;20478;-72
2022/09/01 09:05:20;;;;;;;0.82;0.50;;;18.40;99.90;;;;;;4995098;28;20473;-74
2022/09/01 09:08:28;;;;;;;1.70;0.60;;;18.50;99.90;;;;;;4978043;28;20486;-72
2022/09/01 09:10:57;;;;;;;2.33;0.70;;;18.70;99.90;;;;;;4994316;28;20061;-73
2022/09/01 09:13:41;;;;;;;3.28;0.60;;;18.50;99.90;;;;;;4993621;28;20046;-73
2022/09/01 09:16:17;;;;;;;1.10;0.50;;;18.50;99.90;;;;;;4995153;28;20062;-73
2022/09/01 09:18:56;;;;;;;1.10;0.55;;;18.80;99.90;;;;;;4994352;28;20042;-72
2022/09/01 09:21:43;;;;;;;1.25;0.40;;;19.00;99.90;;;;;;4994863;28;20046;-72
2022/09/01 09:24:17;;;;;;;0.57;0.40;;;18.70;99.90;;;;;;4994913;28;20124;-73
2022/09/01 09:26:48;;;;;;;1.13;0.50;;;19.10;99.90;;;;;;4994010;28;20395;-72
2022/09/01 09:29:14;;;;;;;0.73;0.45;;;19.00;99.90;;;;;;4994610;28;20085;-73
2022/09/01 09:31:47;;;;;;;0.60;0.40;;;18.90;99.90;;;;;;4993536;28;20046;-72
2022/09/01 09:34:36;;;;;;;1.25;0.50;;;19.10;99.90;;;;;;4994841;28;20125;-72
2022/09/01 09:37:20;;;;;;;0.95;0.30;;;19.30;99.90;;;;;;4994472;28;20372;-74
2022/09/01 09:40:10;;;;;;;2.47;0.50;;;19.20;99.90;;;;;;4994839;28;20046;-82
2022/09/01 09:43:00;;;;;;;0.70;0.50;;;19.30;99.90;;;;;;4994196;28;20089;-82
2022/09/01 09:45:39;;;;;;;0.50;0.50;;;19.30;99.90;;;;;;4993782;28;20084;-74
2022/09/01 09:48:30;;;;;;;0.77;0.40;;;19.40;99.90;;;;;;4994275;28;20046;-77
2022/09/01 09:51:16;;;;;;;0.70;0.35;;;19.40;99.90;;;;;;4993581;28;20054;-72
2022/09/01 09:53:41;;;;;;;1.30;0.40;;;19.60;99.90;;;;;;4992959;28;20082;-75
2022/09/01 09:56:24;;;;;;;1.30;0.50;;;19.50;99.90;;;;;;4977110;28;20101;-74
2022/09/01 09:58:52;;;;;;;2.45;0.30;;;19.60;99.90;;;;;;4993300;28;20061;-73
2022/09/01 10:01:24;;;;;;;1.38;0.30;;;19.80;99.90;;;;;;4993114;28;20126;-72
2022/09/01 10:03:51;;;;;;;0.80;0.30;;;19.80;99.90;;;;;;4993928;28;20099;-71
2022/09/01 10:06:40;;;;;;;1.00;0.40;;;20.00;99.90;;;;;;4993120;28;20046;-72
2022/09/01 10:09:29;;;;;;;0.93;0.30;;;19.80;99.90;;;;;;4993770;28;20134;-72
2022/09/01 10:11:56;;;;;;;1.05;0.40;;;20.00;99.90;;;;;;4993529;28;20054;-72
2022/09/01 10:14:40;;;;;;;1.60;0.30;;;20.00;99.90;;;;;;4994312;28;20475;-73
2022/09/01 10:17:17;;;;;;;1.55;0.50;;;20.10;99.90;;;;;;4993544;28;20096;-72
2022/09/01 10:20:02;;;;;;;1.42;0.32;;;20.20;99.90;;;;;;4977401;28;20081;-73
2022/09/01 10:22:27;;;;;;;0.50;0.30;;;20.20;99.90;;;;;;4977594;28;20169;-72
2022/09/01 10:24:53;;;;;;;0.77;0.40;;;20.10;99.90;;;;;;4994073;28;20117;-72
2022/09/01 10:27:26;;;;;;;0.30;0.20;;;20.30;99.90;;;;;;4993353;28;20046;-72
2022/09/01 10:30:00;;;;;;;1.13;0.30;;;20.20;99.90;;;;;;4993263;28;20379;-71
2022/09/01 10:32:31;;;;;;;0.80;0.30;;;20.30;99.90;;;;;;4994043;28;20046;-71
2022/09/01 10:34:57;;;;;;;1.58;0.50;;;20.40;99.90;;;;;;4994402;28;20077;-72
2022/09/01 10:37:23;;;;;;;0.80;0.30;;;20.30;99.90;;;;;;4993852;28;20104;-72
2022/09/01 10:40:19;;;;;;;1.70;0.30;;;20.40;99.90;;;;;;4992837;28;20089;-72
2022/09/01 10:42:52;;;;;;;1.05;0.30;;;20.40;99.90;;;;;;4993734;28;20129;-72
2022/09/01 10:45:34;;;;;;;0.88;0.45;;;20.40;99.90;;;;;;4993981;28;20125;-71
2022/09/01 10:48:19;;;;;;;0.47;0.30;;;20.40;99.30;;;;;;4993718;28;20053;-73
2022/09/01 10:50:46;;;;;;;1.15;0.32;;;20.50;99.60;;;;;;4994029;28;20073;-73
2022/09/01 10:53:40;;;;;;;1.23;0.30;;;20.60;99.30;;;;;;4996302;28;20129;-72
2022/09/01 10:56:09;;;;;;;0.60;0.30;;;20.70;99.90;;;;;;4992519;28;20054;-71
2022/09/01 10:58:35;;;;;;;1.60;0.30;;;20.70;99.90;;;;;;4976438;28;20121;-72
2022/09/01 11:01:01;;;;;;;0.40;0.20;;;20.70;99.90;;;;;;4992749;28;20475;-72
2022/09/01 11:03:30;;;;;;;0.57;0.30;;;20.80;98.40;;;;;;4993710;28;20078;-72
2022/09/01 11:06:00;;;;;;;0.63;0.30;;;20.80;97.90;;;;;;4993664;28;20101;-73
2022/09/01 11:08:26;;;;;;;1.13;0.28;;;20.80;96.90;;;;;;4993091;28;20558;-73
2022/09/01 11:11:13;;;;;;;0.65;0.20;;;20.70;97.50;;;;;;4994056;28;20128;-73
2022/09/01 11:13:47;;;;;;;0.88;0.30;;;20.90;97.30;;;;;;4993839;28;20053;-73
2022/09/01 11:16:38;;;;;;;0.47;0.20;;;20.90;97.70;;;;;;4992073;28;20046;-70
2022/09/01 11:19:55;;;;;;;1.00;0.30;;;20.90;93.20;;;;;;4993203;28;20054;-74
2022/09/01 11:22:24;;;;;;;1.48;0.20;;;21.00;92.80;;;;;;4992113;28;20054;-73
2022/09/01 11:25:10;;;;;;;0.77;0.28;;;21.10;92.50;;;;;;4976160;28;20058;-71
2022/09/01 11:27:48;;;;;;;0.50;0.20;;;21.10;92.50;;;;;;4993751;28;20438;-73
2022/09/01 11:30:18;;;;;;;1.00;0.30;;;21.20;92.30;;;;;;4994075;28;20415;-73
2022/09/01 11:32:48;;;;;;;4.30;0.30;;;21.20;91.70;;;;;;4992772;28;20471;-74
2022/09/01 11:35:17;;;;;;;0.40;0.20;;;21.30;91.70;;;;;;4993730;28;20054;-73
2022/09/01 11:37:47;;;;;;;1.00;0.20;;;21.30;91.70;;;;;;4993985;28;20125;-73
2022/09/01 11:40:25;;;;;;;0.77;0.68;;;21.30;91.40;;;;;;4993601;28;20394;-73
2022/09/01 11:42:53;;;;;;;0.95;0.30;;;21.40;91.30;;;;;;4995958;28;20046;-74
2022/09/01 11:45:27;;;;;;;1.38;0.60;;;21.40;91.00;;;;;;4995367;28;20047;-73
2022/09/01 11:48:13;;;;;;;1.05;0.20;;;21.50;90.70;;;;;;4997349;28;20105;-72
2022/09/01 11:50:41;;;;;;;1.30;0.32;;;21.50;90.30;;;;;;4996791;28;20482;-72
2022/09/01 11:53:13;;;;;;;2.13;0.30;;;21.50;89.50;;;;;;4996354;28;20092;-73
2022/09/01 11:55:43;;;;;;;;;;;21.50;90.00;;;;;;4997382;28;20054;-73
2022/09/01 11:58:30;;;;;;;0.55;0.30;;;21.00;90.60;;;;;;4996912;28;20361;-74
2022/09/01 12:01:10;;;;;;;2.53;0.40;;;21.50;88.90;;;;;;4997069;28;20137;-73
2022/09/01 12:03:35;;;;;;;0.65;0.30;;;21.60;88.20;;;;;;4996255;28;20051;-73
2022/09/01 12:06:04;;;;;;;0.50;0.30;;;21.60;88.70;;;;;;4997163;28;20053;-74
2022/09/01 12:08:41;;;;;;;1.02;0.30;;;21.70;87.30;;;;;;4997358;28;20096;-74
2022/09/01 12:11:20;;;;;;;0.70;0.30;;;21.70;87.70;;;;;;4997079;28;20046;-75
2022/09/01 12:14:06;;;;;;;1.13;0.30;;;21.70;87.60;;;;;;4997604;28;20050;-74
2022/09/01 12:16:35;;;;;;;1.02;0.40;;;21.70;87.10;;;;;;4996812;28;20053;-75
2022/09/01 12:19:04;;;;;;;0.30;0.28;;;21.80;86.60;;;;;;4995918;28;20046;-74
2022/09/01 12:21:32;;;;;;;0.65;0.35;;;21.80;86.60;;;;;;4996803;28;20046;-75
2022/09/01 12:24:19;;;;;;;2.45;0.30;;;21.90;86.40;;;;;;4997584;28;20082;-74
2022/09/01 12:26:46;;;;;;;0.55;0.20;;;21.90;87.00;;;;;;4996556;28;20054;-74
2022/09/01 12:29:13;;;;;;;0.77;0.30;;;22.00;87.10;;;;;;4996015;28;20104;-74
2022/09/01 12:31:42;;;;;;;1.05;0.30;;;22.00;87.10;;;;;;4996640;28;20056;-74
2022/09/01 12:34:26;;;;;;;0.45;0.30;;;22.10;86.70;;;;;;4996596;28;20133;-74
2022/09/01 12:37:23;;;;;;;4.70;0.50;;;22.20;86.40;;;;;;4996627;28;20082;-74
2022/09/01 12:39:56;;;;;;;0.40;0.30;;;22.20;85.60;;;;;;4995799;28;20093;-77
2022/09/01 12:42:32;;;;;;;0.50;0.30;;;22.20;84.50;;;;;;4995581;28;20047;-75
2022/09/01 12:45:00;;;;;;;2.38;0.30;;;22.30;84.90;;;;;;4996072;28;20062;-74
2022/09/01 12:47:34;;;;;;;0.55;0.20;;;22.30;84.80;;;;;;4996328;28;20046;-74
2022/09/01 12:50:13;;;;;;;0.90;0.40;;;22.30;85.40;;;;;;4996327;28;20137;-74
2022/09/01 12:52:53;;;;;;;0.35;0.20;;;22.30;85.90;;;;;;4995749;28;20082;-74
2022/09/01 12:55:26;;;;;;;1.75;0.30;;;22.40;85.00;;;;;;4996588;28;20054;-74
2022/09/01 12:57:55;;;;;;;2.20;0.30;;;22.40;84.70;;;;;;4996192;28;20050;-75
2022/09/01 13:00:33;;;;;;;1.90;0.30;;;22.30;84.30;;;;;;4994933;28;20049;-75
2022/09/01 13:03:04;;;;;;;0.30;0.20;;;22.40;84.30;;;;;;4994887;28;20049;-75
2022/09/01 13:05:46;;;;;;;0.70;0.20;;;22.40;84.20;;;;;;4996308;28;20112;-74
2022/09/01 13:08:15;;;;;;;1.00;0.40;;;22.40;83.80;;;;;;4995644;28;20367;-75
2022/09/01 13:10:52;;;;;;;1.35;0.30;;;22.50;83.60;;;;;;4995924;28;20058;-74
2022/09/01 13:13:19;;;;;;;0.77;0.28;;;22.50;83.70;;;;;;4996146;28;20050;-73